Accueil
METAR-TAF:

METAR-TAF

Aéroports :

Suva, Fidji

Aéroport de Suva-Nausori

latitude: 18-03S, longitude: 178-34E, altitude: 5 m

Observation

Le bulletin a été fait il y a 27 minutes, à 20:00 UTC
Vent calme
Température 24°C
Humidité 100%
Pression 1013 hPa
Visibilité 10 km ou plus
Quelques nuages à une hauteur de 2000 ft
Nuages épars à une hauteur de 30000 ft

METAR: NFNA 222000Z 00000KT 9999 FEW020 SCT300 24/24 Q1013

Heure: 08:27 (20:27 UTC)

Prévision

Le bulletin a été fait il y a 3 heures et 23 minutes, à 17:04 UTC
Prévision valable du 22 à 18 UTC au 23 à 18 UTC
Vent 5 kt de nord/nord-ouest
Visibilité 10 km ou plus
Quelques nuages à une hauteur de 2000 ft

TAF: NFNA 221704Z 2218/2318 33005KT 9999 FEW020

Observations et prévisions météorologiques de plus de 4000 aéroports (messages METAR et TAF).

Les stations disponibles sont représentées par des disques jaunes et rouges sur la carte.

Passer la souris dessus pour voir le nom de la station.

Cliquer dessus pour voir les observations et prévisions météorologiques.

Pour changer de carte: cliquez sur les boutons verts avec une croix noire pour zoomer, sur le bouton vert avec un tiret pour effectuer un zoom arrière, ou sur les flèches vertes pour les cartes adjacentes.


METAR-TAF: